sensor_id;sensor_type;location;lat;lon;timestamp;P1;durP1;ratioP1;P2;durP2;ratioP2
17345;SDS011;8790;53.590;10.002;2023-07-24T00:00:13;4.15;;;3.38;;
17345;SDS011;8790;53.590;10.002;2023-07-24T00:02:46;3.60;;;3.30;;
17345;SDS011;8790;53.590;10.002;2023-07-24T00:05:18;4.22;;;3.55;;
17345;SDS011;8790;53.590;10.002;2023-07-24T00:07:50;3.80;;;3.40;;
17345;SDS011;8790;53.590;10.002;2023-07-24T00:10:21;3.50;;;3.20;;
17345;SDS011;8790;53.590;10.002;2023-07-24T00:12:53;4.03;;;3.60;;
17345;SDS011;8790;53.590;10.002;2023-07-24T00:15:25;4.28;;;3.83;;
17345;SDS011;8790;53.590;10.002;2023-07-24T00:17:58;4.20;;;3.80;;
17345;SDS011;8790;53.590;10.002;2023-07-24T00:20:29;4.80;;;3.90;;
17345;SDS011;8790;53.590;10.002;2023-07-24T00:23:01;4.00;;;3.60;;
17345;SDS011;8790;53.590;10.002;2023-07-24T00:25:33;4.00;;;3.47;;
17345;SDS011;8790;53.590;10.002;2023-07-24T00:28:04;4.30;;;3.47;;
17345;SDS011;8790;53.590;10.002;2023-07-24T00:30:36;4.25;;;3.85;;
17345;SDS011;8790;53.590;10.002;2023-07-24T00:33:09;4.07;;;3.65;;
17345;SDS011;8790;53.590;10.002;2023-07-24T00:35:42;3.95;;;3.55;;
17345;SDS011;8790;53.590;10.002;2023-07-24T00:38:14;4.18;;;3.78;;
17345;SDS011;8790;53.590;10.002;2023-07-24T00:40:45;3.83;;;3.50;;
17345;SDS011;8790;53.590;10.002;2023-07-24T00:43:17;3.90;;;3.60;;
17345;SDS011;8790;53.590;10.002;2023-07-24T00:45:49;4.95;;;3.53;;
17345;SDS011;8790;53.590;10.002;2023-07-24T00:48:22;6.13;;;4.00;;
17345;SDS011;8790;53.590;10.002;2023-07-24T00:50:54;4.45;;;3.80;;
17345;SDS011;8790;53.590;10.002;2023-07-24T00:53:27;5.40;;;3.90;;
17345;SDS011;8790;53.590;10.002;2023-07-24T00:55:59;4.72;;;3.97;;
17345;SDS011;8790;53.590;10.002;2023-07-24T00:58:31;5.25;;;4.53;;
17345;SDS011;8790;53.590;10.002;2023-07-24T01:01:04;4.28;;;3.70;;
17345;SDS011;8790;53.590;10.002;2023-07-24T01:03:37;4.80;;;4.07;;
17345;SDS011;8790;53.590;10.002;2023-07-24T01:06:09;4.32;;;3.92;;
17345;SDS011;8790;53.590;10.002;2023-07-24T01:08:41;5.47;;;4.45;;
17345;SDS011;8790;53.590;10.002;2023-07-24T01:11:15;7.05;;;4.45;;
17345;SDS011;8790;53.590;10.002;2023-07-24T01:13:52;5.47;;;4.40;;
17345;SDS011;8790;53.590;10.002;2023-07-24T01:16:31;4.63;;;4.00;;
17345;SDS011;8790;53.590;10.002;2023-07-24T01:19:11;4.68;;;4.20;;
17345;SDS011;8790;53.590;10.002;2023-07-24T01:21:52;5.78;;;4.38;;
17345;SDS011;8790;53.590;10.002;2023-07-24T01:24:30;4.78;;;3.90;;
17345;SDS011;8790;53.590;10.002;2023-07-24T01:27:09;4.82;;;4.38;;
17345;SDS011;8790;53.590;10.002;2023-07-24T01:29:40;4.63;;;4.05;;
17345;SDS011;8790;53.590;10.002;2023-07-24T01:32:12;5.10;;;4.10;;
17345;SDS011;8790;53.590;10.002;2023-07-24T01:34:45;6.13;;;4.25;;
17345;SDS011;8790;53.590;10.002;2023-07-24T01:37:17;4.80;;;3.83;;
17345;SDS011;8790;53.590;10.002;2023-07-24T01:39:51;5.18;;;4.40;;
17345;SDS011;8790;53.590;10.002;2023-07-24T01:42:26;5.28;;;4.00;;
17345;SDS011;8790;53.590;10.002;2023-07-24T01:44:59;5.15;;;3.85;;
17345;SDS011;8790;53.590;10.002;2023-07-24T01:47:31;5.75;;;4.18;;
17345;SDS011;8790;53.590;10.002;2023-07-24T01:50:03;4.47;;;4.07;;
17345;SDS011;8790;53.590;10.002;2023-07-24T01:52:36;5.28;;;4.18;;
17345;SDS011;8790;53.590;10.002;2023-07-24T01:55:08;4.65;;;4.22;;
17345;SDS011;8790;53.590;10.002;2023-07-24T01:57:41;4.75;;;4.10;;
17345;SDS011;8790;53.590;10.002;2023-07-24T02:00:13;5.07;;;4.32;;
17345;SDS011;8790;53.590;10.002;2023-07-24T02:03:10;5.05;;;4.43;;
17345;SDS011;8790;53.590;10.002;2023-07-24T02:05:42;5.03;;;4.40;;
17345;SDS011;8790;53.590;10.002;2023-07-24T02:08:13;5.55;;;4.53;;
17345;SDS011;8790;53.590;10.002;2023-07-24T02:10:48;4.82;;;4.43;;
17345;SDS011;8790;53.590;10.002;2023-07-24T02:13:21;5.38;;;4.57;;
17345;SDS011;8790;53.590;10.002;2023-07-24T02:15:53;5.28;;;4.78;;
17345;SDS011;8790;53.590;10.002;2023-07-24T02:18:25;4.95;;;4.15;;
17345;SDS011;8790;53.590;10.002;2023-07-24T02:20:57;5.30;;;4.57;;
17345;SDS011;8790;53.590;10.002;2023-07-24T02:23:29;5.20;;;4.70;;
17345;SDS011;8790;53.590;10.002;2023-07-24T02:26:00;5.55;;;4.55;;
17345;SDS011;8790;53.590;10.002;2023-07-24T02:28:33;6.03;;;4.75;;
17345;SDS011;8790;53.590;10.002;2023-07-24T02:31:05;4.80;;;4.33;;
17345;SDS011;8790;53.590;10.002;2023-07-24T02:33:37;4.45;;;4.03;;
17345;SDS011;8790;53.590;10.002;2023-07-24T02:36:10;5.40;;;4.72;;
17345;SDS011;8790;53.590;10.002;2023-07-24T02:38:45;5.63;;;4.60;;
17345;SDS011;8790;53.590;10.002;2023-07-24T02:41:16;5.65;;;4.88;;
17345;SDS011;8790;53.590;10.002;2023-07-24T02:43:50;5.80;;;5.20;;
17345;SDS011;8790;53.590;10.002;2023-07-24T02:46:23;6.03;;;4.93;;
17345;SDS011;8790;53.590;10.002;2023-07-24T02:48:55;6.47;;;5.65;;
17345;SDS011;8790;53.590;10.002;2023-07-24T02:51:27;5.82;;;4.63;;
17345;SDS011;8790;53.590;10.002;2023-07-24T02:53:59;7.85;;;5.38;;
17345;SDS011;8790;53.590;10.002;2023-07-24T02:56:31;5.70;;;5.20;;
17345;SDS011;8790;53.590;10.002;2023-07-24T02:59:04;5.70;;;5.20;;
17345;SDS011;8790;53.590;10.002;2023-07-24T03:01:36;5.35;;;4.85;;
17345;SDS011;8790;53.590;10.002;2023-07-24T03:04:08;5.80;;;5.18;;
17345;SDS011;8790;53.590;10.002;2023-07-24T03:06:39;4.90;;;4.35;;
17345;SDS011;8790;53.590;10.002;2023-07-24T03:09:11;5.35;;;4.75;;
17345;SDS011;8790;53.590;10.002;2023-07-24T03:11:43;5.63;;;4.90;;
17345;SDS011;8790;53.590;10.002;2023-07-24T03:14:16;5.43;;;4.93;;
17345;SDS011;8790;53.590;10.002;2023-07-24T03:16:48;7.40;;;4.90;;
17345;SDS011;8790;53.590;10.002;2023-07-24T03:19:19;5.13;;;4.53;;
17345;SDS011;8790;53.590;10.002;2023-07-24T03:21:51;6.75;;;5.05;;
17345;SDS011;8790;53.590;10.002;2023-07-24T03:24:23;4.87;;;4.37;;
17345;SDS011;8790;53.590;10.002;2023-07-24T03:26:55;5.50;;;4.53;;
17345;SDS011;8790;53.590;10.002;2023-07-24T03:29:29;4.75;;;4.35;;
17345;SDS011;8790;53.590;10.002;2023-07-24T03:32:01;4.80;;;4.30;;
17345;SDS011;8790;53.590;10.002;2023-07-24T03:34:33;5.50;;;4.25;;
17345;SDS011;8790;53.590;10.002;2023-07-24T03:37:04;4.85;;;4.10;;
17345;SDS011;8790;53.590;10.002;2023-07-24T03:39:36;7.00;;;5.15;;
17345;SDS011;8790;53.590;10.002;2023-07-24T03:42:09;5.30;;;4.80;;
17345;SDS011;8790;53.590;10.002;2023-07-24T03:44:43;6.60;;;4.93;;
17345;SDS011;8790;53.590;10.002;2023-07-24T03:47:15;5.82;;;5.22;;
17345;SDS011;8790;53.590;10.002;2023-07-24T03:49:47;5.45;;;4.80;;
17345;SDS011;8790;53.590;10.002;2023-07-24T03:52:19;5.88;;;5.25;;
17345;SDS011;8790;53.590;10.002;2023-07-24T03:54:50;6.63;;;4.63;;
17345;SDS011;8790;53.590;10.002;2023-07-24T03:57:22;5.85;;;4.38;;
17345;SDS011;8790;53.590;10.002;2023-07-24T03:59:55;5.22;;;4.72;;
17345;SDS011;8790;53.590;10.002;2023-07-24T04:02:27;6.50;;;5.30;;
17345;SDS011;8790;53.590;10.002;2023-07-24T04:04:59;6.15;;;5.32;;
17345;SDS011;8790;53.590;10.002;2023-07-24T04:07:31;5.50;;;5.00;;
17345;SDS011;8790;53.590;10.002;2023-07-24T04:10:02;6.57;;;4.82;;
17345;SDS011;8790;53.590;10.002;2023-07-24T04:12:35;5.70;;;5.07;;
17345;SDS011;8790;53.590;10.002;2023-07-24T04:15:08;5.70;;;4.73;;
17345;SDS011;8790;53.590;10.002;2023-07-24T04:17:40;6.35;;;5.20;;
17345;SDS011;8790;53.590;10.002;2023-07-24T04:20:12;5.50;;;5.00;;
17345;SDS011;8790;53.590;10.002;2023-07-24T04:22:44;6.55;;;5.15;;
17345;SDS011;8790;53.590;10.002;2023-07-24T04:25:15;7.07;;;5.20;;
17345;SDS011;8790;53.590;10.002;2023-07-24T04:27:47;5.78;;;5.20;;
17345;SDS011;8790;53.590;10.002;2023-07-24T04:30:20;6.32;;;5.57;;
17345;SDS011;8790;53.590;10.002;2023-07-24T04:32:52;6.33;;;5.70;;
17345;SDS011;8790;53.590;10.002;2023-07-24T04:35:24;5.90;;;5.30;;
17345;SDS011;8790;53.590;10.002;2023-07-24T04:37:57;6.65;;;5.40;;
17345;SDS011;8790;53.590;10.002;2023-07-24T04:40:29;5.93;;;5.25;;
17345;SDS011;8790;53.590;10.002;2023-07-24T04:43:01;6.20;;;5.50;;
17345;SDS011;8790;53.590;10.002;2023-07-24T04:45:34;7.17;;;5.80;;
17345;SDS011;8790;53.590;10.002;2023-07-24T04:48:06;8.32;;;5.75;;
17345;SDS011;8790;53.590;10.002;2023-07-24T04:50:37;6.00;;;5.40;;
17345;SDS011;8790;53.590;10.002;2023-07-24T04:53:09;6.38;;;5.30;;
17345;SDS011;8790;53.590;10.002;2023-07-24T04:55:41;6.47;;;4.78;;
17345;SDS011;8790;53.590;10.002;2023-07-24T04:58:13;6.35;;;5.00;;
17345;SDS011;8790;53.590;10.002;2023-07-24T05:00:46;6.43;;;5.30;;
17345;SDS011;8790;53.590;10.002;2023-07-24T05:03:17;5.80;;;5.20;;
17345;SDS011;8790;53.590;10.002;2023-07-24T05:05:53;5.05;;;4.43;;
17345;SDS011;8790;53.590;10.002;2023-07-24T05:08:25;5.65;;;4.95;;
17345;SDS011;8790;53.590;10.002;2023-07-24T05:10:57;6.00;;;5.40;;
17345;SDS011;8790;53.590;10.002;2023-07-24T05:13:30;7.53;;;4.80;;
17345;SDS011;8790;53.590;10.002;2023-07-24T05:16:03;5.55;;;5.05;;
17345;SDS011;8790;53.590;10.002;2023-07-24T05:18:35;5.28;;;4.68;;
17345;SDS011;8790;53.590;10.002;2023-07-24T05:21:07;6.50;;;4.37;;
17345;SDS011;8790;53.590;10.002;2023-07-24T05:23:38;5.97;;;4.93;;
17345;SDS011;8790;53.590;10.002;2023-07-24T05:26:10;5.47;;;4.50;;
17345;SDS011;8790;53.590;10.002;2023-07-24T05:28:42;6.05;;;4.68;;
17345;SDS011;8790;53.590;10.002;2023-07-24T05:31:15;6.03;;;5.20;;
17345;SDS011;8790;53.590;10.002;2023-07-24T05:33:46;6.13;;;4.82;;
17345;SDS011;8790;53.590;10.002;2023-07-24T05:36:18;6.25;;;5.00;;
17345;SDS011;8790;53.590;10.002;2023-07-24T05:38:51;5.55;;;4.80;;
17345;SDS011;8790;53.590;10.002;2023-07-24T05:41:23;4.78;;;3.92;;
17345;SDS011;8790;53.590;10.002;2023-07-24T05:43:55;5.00;;;4.50;;
17345;SDS011;8790;53.590;10.002;2023-07-24T05:46:28;5.95;;;4.63;;
17345;SDS011;8790;53.590;10.002;2023-07-24T05:48:59;5.00;;;4.32;;
17345;SDS011;8790;53.590;10.002;2023-07-24T05:51:31;7.03;;;5.07;;
17345;SDS011;8790;53.590;10.002;2023-07-24T05:54:03;5.77;;;5.03;;
17345;SDS011;8790;53.590;10.002;2023-07-24T05:56:35;5.15;;;4.65;;
17345;SDS011;8790;53.590;10.002;2023-07-24T05:59:06;5.72;;;4.63;;
17345;SDS011;8790;53.590;10.002;2023-07-24T06:01:39;6.10;;;5.10;;
17345;SDS011;8790;53.590;10.002;2023-07-24T06:04:11;5.90;;;5.30;;
17345;SDS011;8790;53.590;10.002;2023-07-24T06:06:43;5.63;;;4.90;;
17345;SDS011;8790;53.590;10.002;2023-07-24T06:09:15;5.78;;;5.15;;
17345;SDS011;8790;53.590;10.002;2023-07-24T06:11:46;6.13;;;5.15;;
17345;SDS011;8790;53.590;10.002;2023-07-24T06:14:18;7.22;;;5.90;;
17345;SDS011;8790;53.590;10.002;2023-07-24T06:16:51;5.55;;;4.85;;
17345;SDS011;8790;53.590;10.002;2023-07-24T06:19:23;5.95;;;5.35;;
17345;SDS011;8790;53.590;10.002;2023-07-24T06:21:54;5.85;;;5.22;;
17345;SDS011;8790;53.590;10.002;2023-07-24T06:24:26;5.97;;;5.10;;
17345;SDS011;8790;53.590;10.002;2023-07-24T06:26:58;5.90;;;5.00;;
17345;SDS011;8790;53.590;10.002;2023-07-24T06:29:30;5.50;;;4.93;;
17345;SDS011;8790;53.590;10.002;2023-07-24T06:32:03;5.53;;;4.78;;
17345;SDS011;8790;53.590;10.002;2023-07-24T06:34:35;5.35;;;4.85;;
17345;SDS011;8790;53.590;10.002;2023-07-24T06:37:07;5.50;;;5.00;;
17345;SDS011;8790;53.590;10.002;2023-07-24T06:39:39;5.50;;;5.00;;
17345;SDS011;8790;53.590;10.002;2023-07-24T06:42:10;5.50;;;4.95;;
17345;SDS011;8790;53.590;10.002;2023-07-24T06:44:42;6.32;;;5.63;;
17345;SDS011;8790;53.590;10.002;2023-07-24T06:47:15;6.32;;;5.15;;
17345;SDS011;8790;53.590;10.002;2023-07-24T06:49:47;6.25;;;5.43;;
17345;SDS011;8790;53.590;10.002;2023-07-24T06:52:18;6.25;;;5.10;;
17345;SDS011;8790;53.590;10.002;2023-07-24T06:54:50;6.40;;;4.93;;
17345;SDS011;8790;53.590;10.002;2023-07-24T06:57:22;5.80;;;5.10;;
17345;SDS011;8790;53.590;10.002;2023-07-24T06:59:55;6.07;;;5.47;;
17345;SDS011;8790;53.590;10.002;2023-07-24T07:02:28;5.97;;;4.90;;
17345;SDS011;8790;53.590;10.002;2023-07-24T07:04:59;6.43;;;5.83;;
17345;SDS011;8790;53.590;10.002;2023-07-24T07:07:31;7.03;;;5.68;;
17345;SDS011;8790;53.590;10.002;2023-07-24T07:10:03;7.35;;;5.50;;
17345;SDS011;8790;53.590;10.002;2023-07-24T07:12:35;6.53;;;5.82;;
17345;SDS011;8790;53.590;10.002;2023-07-24T07:15:07;7.03;;;6.20;;
17345;SDS011;8790;53.590;10.002;2023-07-24T07:17:41;7.50;;;5.97;;
17345;SDS011;8790;53.590;10.002;2023-07-24T07:20:13;6.40;;;5.80;;
17345;SDS011;8790;53.590;10.002;2023-07-24T07:22:45;7.53;;;6.13;;
17345;SDS011;8790;53.590;10.002;2023-07-24T07:25:16;8.55;;;6.78;;
17345;SDS011;8790;53.590;10.002;2023-07-24T07:27:48;6.70;;;6.10;;
17345;SDS011;8790;53.590;10.002;2023-07-24T07:30:20;6.93;;;6.22;;
17345;SDS011;8790;53.590;10.002;2023-07-24T07:32:53;6.50;;;5.90;;
17345;SDS011;8790;53.590;10.002;2023-07-24T07:35:24;7.18;;;6.22;;
17345;SDS011;8790;53.590;10.002;2023-07-24T07:37:56;6.72;;;6.03;;
17345;SDS011;8790;53.590;10.002;2023-07-24T07:40:28;6.40;;;5.80;;
17345;SDS011;8790;53.590;10.002;2023-07-24T07:43:00;6.25;;;5.65;;
17345;SDS011;8790;53.590;10.002;2023-07-24T07:45:32;7.13;;;5.38;;
17345;SDS011;8790;53.590;10.002;2023-07-24T07:48:05;6.18;;;5.57;;
17345;SDS011;8790;53.590;10.002;2023-07-24T07:50:37;6.15;;;5.55;;
17345;SDS011;8790;53.590;10.002;2023-07-24T07:53:09;6.00;;;5.40;;
17345;SDS011;8790;53.590;10.002;2023-07-24T07:55:40;6.20;;;5.40;;
17345;SDS011;8790;53.590;10.002;2023-07-24T07:58:12;5.13;;;4.70;;
17345;SDS011;8790;53.590;10.002;2023-07-24T08:00:44;6.25;;;5.22;;
17345;SDS011;8790;53.590;10.002;2023-07-24T08:03:17;6.20;;;5.60;;
17345;SDS011;8790;53.590;10.002;2023-07-24T08:05:48;6.50;;;5.90;;
17345;SDS011;8790;53.590;10.002;2023-07-24T08:08:20;6.75;;;6.00;;
17345;SDS011;8790;53.590;10.002;2023-07-24T08:10:52;5.97;;;5.38;;
17345;SDS011;8790;53.590;10.002;2023-07-24T08:13:24;5.97;;;5.38;;
17345;SDS011;8790;53.590;10.002;2023-07-24T08:15:55;5.80;;;5.28;;
17345;SDS011;8790;53.590;10.002;2023-07-24T08:18:28;6.65;;;5.95;;
17345;SDS011;8790;53.590;10.002;2023-07-24T08:21:00;7.20;;;6.45;;
17345;SDS011;8790;53.590;10.002;2023-07-24T08:23:32;7.80;;;6.68;;
17345;SDS011;8790;53.590;10.002;2023-07-24T08:26:04;6.53;;;5.90;;
17345;SDS011;8790;53.590;10.002;2023-07-24T08:28:36;7.05;;;6.38;;
17345;SDS011;8790;53.590;10.002;2023-07-24T08:31:12;6.40;;;5.80;;
17345;SDS011;8790;53.590;10.002;2023-07-24T08:33:45;6.80;;;6.20;;
17345;SDS011;8790;53.590;10.002;2023-07-24T08:36:17;7.10;;;6.40;;
17345;SDS011;8790;53.590;10.002;2023-07-24T08:38:48;9.50;;;7.13;;
17345;SDS011;8790;53.590;10.002;2023-07-24T08:41:20;7.88;;;7.13;;
17345;SDS011;8790;53.590;10.002;2023-07-24T08:43:52;8.85;;;7.75;;
17345;SDS011;8790;53.590;10.002;2023-07-24T08:46:24;8.27;;;7.47;;
17345;SDS011;8790;53.590;10.002;2023-07-24T08:48:57;8.57;;;7.78;;
17345;SDS011;8790;53.590;10.002;2023-07-24T08:51:29;8.27;;;7.47;;
17345;SDS011;8790;53.590;10.002;2023-07-24T08:54:02;7.72;;;7.03;;
17345;SDS011;8790;53.590;10.002;2023-07-24T08:56:35;8.13;;;7.05;;
17345;SDS011;8790;53.590;10.002;2023-07-24T08:59:07;8.18;;;7.38;;
17345;SDS011;8790;53.590;10.002;2023-07-24T09:01:39;8.65;;;7.75;;
17345;SDS011;8790;53.590;10.002;2023-07-24T09:04:12;7.68;;;6.93;;
17345;SDS011;8790;53.590;10.002;2023-07-24T09:06:44;8.38;;;7.50;;
17345;SDS011;8790;53.590;10.002;2023-07-24T09:09:16;8.15;;;7.35;;
17345;SDS011;8790;53.590;10.002;2023-07-24T09:11:49;8.57;;;7.40;;
17345;SDS011;8790;53.590;10.002;2023-07-24T09:14:22;8.27;;;7.30;;
17345;SDS011;8790;53.590;10.002;2023-07-24T09:17:04;7.97;;;7.18;;
17345;SDS011;8790;53.590;10.002;2023-07-24T09:19:38;7.45;;;6.75;;
17345;SDS011;8790;53.590;10.002;2023-07-24T09:22:10;7.30;;;6.60;;
17345;SDS011;8790;53.590;10.002;2023-07-24T09:24:50;7.05;;;6.32;;
17345;SDS011;8790;53.590;10.002;2023-07-24T09:27:24;7.50;;;6.80;;
17345;SDS011;8790;53.590;10.002;2023-07-24T09:29:57;7.75;;;6.95;;
17345;SDS011;8790;53.590;10.002;2023-07-24T09:32:29;7.10;;;6.47;;
17345;SDS011;8790;53.590;10.002;2023-07-24T09:35:03;7.97;;;7.00;;
17345;SDS011;8790;53.590;10.002;2023-07-24T09:37:35;8.50;;;7.70;;
17345;SDS011;8790;53.590;10.002;2023-07-24T09:40:08;7.97;;;7.15;;
17345;SDS011;8790;53.590;10.002;2023-07-24T09:42:41;10.32;;;7.68;;
17345;SDS011;8790;53.590;10.002;2023-07-24T09:45:12;9.65;;;7.55;;
17345;SDS011;8790;53.590;10.002;2023-07-24T09:47:44;8.50;;;7.47;;
17345;SDS011;8790;53.590;10.002;2023-07-24T09:50:19;7.90;;;7.10;;
17345;SDS011;8790;53.590;10.002;2023-07-24T09:52:51;8.43;;;7.15;;
17345;SDS011;8790;53.590;10.002;2023-07-24T09:55:25;10.48;;;7.32;;
17345;SDS011;8790;53.590;10.002;2023-07-24T09:58:01;6.88;;;6.18;;
17345;SDS011;8790;53.590;10.002;2023-07-24T10:00:34;7.80;;;7.10;;
17345;SDS011;8790;53.590;10.002;2023-07-24T10:03:06;8.07;;;6.80;;
17345;SDS011;8790;53.590;10.002;2023-07-24T10:05:40;7.00;;;6.30;;
17345;SDS011;8790;53.590;10.002;2023-07-24T10:08:12;6.93;;;6.22;;
17345;SDS011;8790;53.590;10.002;2023-07-24T10:10:45;6.82;;;6.18;;
17345;SDS011;8790;53.590;10.002;2023-07-24T10:13:21;7.10;;;6.50;;
17345;SDS011;8790;53.590;10.002;2023-07-24T10:15:53;6.95;;;6.25;;
17345;SDS011;8790;53.590;10.002;2023-07-24T10:18:26;7.78;;;6.30;;
17345;SDS011;8790;53.590;10.002;2023-07-24T10:21:03;6.80;;;6.05;;
17345;SDS011;8790;53.590;10.002;2023-07-24T10:23:36;7.13;;;6.22;;
17345;SDS011;8790;53.590;10.002;2023-07-24T10:26:12;6.43;;;5.82;;
17345;SDS011;8790;53.590;10.002;2023-07-24T10:28:46;7.03;;;6.40;;
17345;SDS011;8790;53.590;10.002;2023-07-24T10:31:20;6.70;;;6.05;;
17345;SDS011;8790;53.590;10.002;2023-07-24T10:33:52;6.38;;;5.53;;
17345;SDS011;8790;53.590;10.002;2023-07-24T10:36:26;5.70;;;5.20;;
17345;SDS011;8790;53.590;10.002;2023-07-24T10:39:12;7.80;;;5.97;;
17345;SDS011;8790;53.590;10.002;2023-07-24T10:41:45;6.68;;;5.70;;
17345;SDS011;8790;53.590;10.002;2023-07-24T10:44:17;8.05;;;5.95;;
17345;SDS011;8790;53.590;10.002;2023-07-24T10:46:50;7.38;;;6.03;;
17345;SDS011;8790;53.590;10.002;2023-07-24T10:49:22;7.78;;;5.95;;
17345;SDS011;8790;53.590;10.002;2023-07-24T10:51:56;6.78;;;6.07;;
17345;SDS011;8790;53.590;10.002;2023-07-24T10:54:28;6.13;;;5.43;;
17345;SDS011;8790;53.590;10.002;2023-07-24T10:57:00;7.63;;;6.00;;
17345;SDS011;8790;53.590;10.002;2023-07-24T10:59:35;6.40;;;5.32;;
17345;SDS011;8790;53.590;10.002;2023-07-24T11:02:08;5.90;;;5.30;;
17345;SDS011;8790;53.590;10.002;2023-07-24T11:04:40;5.80;;;5.30;;
17345;SDS011;8790;53.590;10.002;2023-07-24T11:07:13;6.43;;;5.70;;
17345;SDS011;8790;53.590;10.002;2023-07-24T11:09:45;7.85;;;5.78;;
17345;SDS011;8790;53.590;10.002;2023-07-24T11:12:18;6.40;;;5.70;;
17345;SDS011;8790;53.590;10.002;2023-07-24T11:14:50;6.03;;;5.43;;
17345;SDS011;8790;53.590;10.002;2023-07-24T11:17:32;6.18;;;5.57;;
17345;SDS011;8790;53.590;10.002;2023-07-24T11:20:08;6.32;;;5.55;;
17345;SDS011;8790;53.590;10.002;2023-07-24T11:22:43;6.47;;;5.10;;
17345;SDS011;8790;53.590;10.002;2023-07-24T11:25:15;5.28;;;4.72;;
17345;SDS011;8790;53.590;10.002;2023-07-24T11:27:47;5.60;;;5.03;;
17345;SDS011;8790;53.590;10.002;2023-07-24T11:30:19;5.63;;;4.78;;
17345;SDS011;8790;53.590;10.002;2023-07-24T11:32:52;5.57;;;4.97;;
17345;SDS011;8790;53.590;10.002;2023-07-24T11:35:24;5.50;;;5.00;;
17345;SDS011;8790;53.590;10.002;2023-07-24T11:37:57;6.47;;;5.32;;
17345;SDS011;8790;53.590;10.002;2023-07-24T11:40:32;6.07;;;5.47;;
17345;SDS011;8790;53.590;10.002;2023-07-24T11:43:05;6.75;;;5.38;;
17345;SDS011;8790;53.590;10.002;2023-07-24T11:45:46;5.70;;;5.20;;
17345;SDS011;8790;53.590;10.002;2023-07-24T11:48:22;5.80;;;5.30;;
17345;SDS011;8790;53.590;10.002;2023-07-24T11:50:55;5.57;;;4.88;;
17345;SDS011;8790;53.590;10.002;2023-07-24T11:53:29;6.43;;;5.43;;
17345;SDS011;8790;53.590;10.002;2023-07-24T11:56:12;5.90;;;5.40;;
17345;SDS011;8790;53.590;10.002;2023-07-24T11:58:45;5.78;;;5.28;;
17345;SDS011;8790;53.590;10.002;2023-07-24T12:01:16;6.15;;;5.30;;
17345;SDS011;8790;53.590;10.002;2023-07-24T12:03:48;6.15;;;5.55;;
17345;SDS011;8790;53.590;10.002;2023-07-24T12:06:20;5.78;;;5.25;;
17345;SDS011;8790;53.590;10.002;2023-07-24T12:09:01;6.63;;;6.03;;
17345;SDS011;8790;53.590;10.002;2023-07-24T12:11:38;6.07;;;5.57;;
17345;SDS011;8790;53.590;10.002;2023-07-24T12:14:12;6.53;;;5.93;;
17345;SDS011;8790;53.590;10.002;2023-07-24T12:16:44;6.97;;;6.18;;
17345;SDS011;8790;53.590;10.002;2023-07-24T12:19:16;6.28;;;5.68;;
17345;SDS011;8790;53.590;10.002;2023-07-24T12:21:47;6.22;;;5.53;;
17345;SDS011;8790;53.590;10.002;2023-07-24T12:24:20;6.70;;;6.05;;
17345;SDS011;8790;53.590;10.002;2023-07-24T12:26:52;6.88;;;6.22;;
17345;SDS011;8790;53.590;10.002;2023-07-24T12:29:24;7.32;;;6.63;;
17345;SDS011;8790;53.590;10.002;2023-07-24T12:31:56;6.65;;;6.00;;
17345;SDS011;8790;53.590;10.002;2023-07-24T12:34:28;6.28;;;5.70;;
17345;SDS011;8790;53.590;10.002;2023-07-24T12:36:59;6.00;;;5.50;;
17345;SDS011;8790;53.590;10.002;2023-07-24T12:39:32;6.45;;;5.85;;
17345;SDS011;8790;53.590;10.002;2023-07-24T12:42:04;6.57;;;5.97;;
17345;SDS011;8790;53.590;10.002;2023-07-24T12:44:36;6.80;;;5.75;;
17345;SDS011;8790;53.590;10.002;2023-07-24T12:47:08;6.03;;;5.53;;
17345;SDS011;8790;53.590;10.002;2023-07-24T12:49:40;6.97;;;5.78;;
17345;SDS011;8790;53.590;10.002;2023-07-24T12:52:12;6.25;;;5.75;;
17345;SDS011;8790;53.590;10.002;2023-07-24T12:54:45;7.20;;;6.50;;
17345;SDS011;8790;53.590;10.002;2023-07-24T12:57:17;6.47;;;5.97;;
17345;SDS011;8790;53.590;10.002;2023-07-24T12:59:52;6.55;;;5.95;;
17345;SDS011;8790;53.590;10.002;2023-07-24T13:02:24;5.93;;;5.40;;
17345;SDS011;8790;53.590;10.002;2023-07-24T13:04:55;6.75;;;6.15;;
17345;SDS011;8790;53.590;10.002;2023-07-24T13:07:27;6.60;;;5.57;;
17345;SDS011;8790;53.590;10.002;2023-07-24T13:10:00;6.40;;;5.90;;
17345;SDS011;8790;53.590;10.002;2023-07-24T13:12:32;6.43;;;5.93;;
17345;SDS011;8790;53.590;10.002;2023-07-24T13:15:04;7.05;;;6.45;;
17345;SDS011;8790;53.590;10.002;2023-07-24T13:17:37;6.20;;;5.60;;
17345;SDS011;8790;53.590;10.002;2023-07-24T13:20:09;6.55;;;6.03;;
17345;SDS011;8790;53.590;10.002;2023-07-24T13:22:41;6.93;;;6.32;;
17345;SDS011;8790;53.590;10.002;2023-07-24T13:25:17;6.32;;;5.72;;
17345;SDS011;8790;53.590;10.002;2023-07-24T13:27:49;6.30;;;5.70;;
17345;SDS011;8790;53.590;10.002;2023-07-24T13:30:23;5.40;;;4.90;;
17345;SDS011;8790;53.590;10.002;2023-07-24T13:32:54;5.20;;;4.80;;
17345;SDS011;8790;53.590;10.002;2023-07-24T13:35:26;5.57;;;5.07;;
17345;SDS011;8790;53.590;10.002;2023-07-24T13:37:58;5.95;;;5.45;;
17345;SDS011;8790;53.590;10.002;2023-07-24T13:40:31;6.40;;;5.80;;
17345;SDS011;8790;53.590;10.002;2023-07-24T13:43:03;4.93;;;4.53;;
17345;SDS011;8790;53.590;10.002;2023-07-24T13:45:35;5.00;;;4.60;;
17345;SDS011;8790;53.590;10.002;2023-07-24T13:48:07;5.10;;;4.70;;
17345;SDS011;8790;53.590;10.002;2023-07-24T13:50:38;5.05;;;4.55;;
17345;SDS011;8790;53.590;10.002;2023-07-24T13:53:10;5.15;;;4.68;;
17345;SDS011;8790;53.590;10.002;2023-07-24T13:55:43;5.05;;;4.63;;
17345;SDS011;8790;53.590;10.002;2023-07-24T13:58:15;4.70;;;4.30;;
17345;SDS011;8790;53.590;10.002;2023-07-24T14:00:46;5.10;;;4.70;;
17345;SDS011;8790;53.590;10.002;2023-07-24T14:03:18;5.18;;;4.68;;
17345;SDS011;8790;53.590;10.002;2023-07-24T14:05:50;5.78;;;5.03;;
17345;SDS011;8790;53.590;10.002;2023-07-24T14:08:22;6.13;;;4.95;;
17345;SDS011;8790;53.590;10.002;2023-07-24T14:10:55;5.05;;;4.65;;
17345;SDS011;8790;53.590;10.002;2023-07-24T14:13:26;4.90;;;4.40;;
17345;SDS011;8790;53.590;10.002;2023-07-24T14:15:58;5.32;;;4.45;;
17345;SDS011;8790;53.590;10.002;2023-07-24T14:18:30;4.88;;;4.47;;
17345;SDS011;8790;53.590;10.002;2023-07-24T14:21:02;5.10;;;4.70;;
17345;SDS011;8790;53.590;10.002;2023-07-24T14:23:33;4.78;;;4.38;;
17345;SDS011;8790;53.590;10.002;2023-07-24T14:26:07;5.07;;;4.68;;
17345;SDS011;8790;53.590;10.002;2023-07-24T14:28:39;5.07;;;4.57;;
17345;SDS011;8790;53.590;10.002;2023-07-24T14:31:10;5.32;;;4.82;;
17345;SDS011;8790;53.590;10.002;2023-07-24T14:33:42;5.10;;;4.68;;
17345;SDS011;8790;53.590;10.002;2023-07-24T14:36:14;5.53;;;5.03;;
17345;SDS011;8790;53.590;10.002;2023-07-24T14:38:46;4.90;;;4.43;;
17345;SDS011;8790;53.590;10.002;2023-07-24T14:41:19;5.38;;;4.88;;
17345;SDS011;8790;53.590;10.002;2023-07-24T14:43:51;5.20;;;4.70;;
17345;SDS011;8790;53.590;10.002;2023-07-24T14:46:23;4.90;;;4.50;;
17345;SDS011;8790;53.590;10.002;2023-07-24T14:48:54;5.20;;;4.80;;
17345;SDS011;8790;53.590;10.002;2023-07-24T14:51:26;5.68;;;5.18;;
17345;SDS011;8790;53.590;10.002;2023-07-24T14:54:01;5.40;;;4.90;;
17345;SDS011;8790;53.590;10.002;2023-07-24T14:56:35;5.43;;;4.93;;
17345;SDS011;8790;53.590;10.002;2023-07-24T14:59:06;5.78;;;5.28;;
17345;SDS011;8790;53.590;10.002;2023-07-24T15:01:38;5.32;;;4.90;;
17345;SDS011;8790;53.590;10.002;2023-07-24T15:04:10;5.57;;;5.10;;
17345;SDS011;8790;53.590;10.002;2023-07-24T15:06:42;5.07;;;4.63;;
17345;SDS011;8790;53.590;10.002;2023-07-24T15:09:13;6.00;;;5.40;;
17345;SDS011;8790;53.590;10.002;2023-07-24T15:11:46;6.07;;;5.57;;
17345;SDS011;8790;53.590;10.002;2023-07-24T15:14:18;6.32;;;5.72;;
17345;SDS011;8790;53.590;10.002;2023-07-24T15:16:50;6.55;;;5.85;;
17345;SDS011;8790;53.590;10.002;2023-07-24T15:19:21;6.35;;;5.68;;